Denver, Colorado
Traffic Map
Current Weather Conditions
Denver, Colorado
Broken Clouds
Broken Clouds
-4°
Feels Like: -7°
Wind Chill: -7° Ceiling: 20000
Heat Index: -4° Visibility: 7mi
Dew Point: -10° Wind: 5mph
Humidity: 66% Direction: 40° (NE)
Pressure: 30.22in Gusts: 0mph
Raw Report DataKBKF 011858Z 04004KT 7SM FEW006 SCT014 BKN200 M04/M10 A3022 RMK AO2A SLP282 T10411097
Traffic Incident Summary
Active as of:
Severity:
Category:
InformationThere was an issue retrieving the traffic information for this location. Please try a different location or try again shortly.
Advertisements
Track Severe Weather on mobile